createdAt,value
2022-12-09T00:00:11.860Z,96021.69
2022-12-09T00:04:15.081Z,96004.53
2022-12-09T00:08:15.452Z,95999.25
2022-12-09T00:12:15.606Z,95993.34
2022-12-09T00:16:17.666Z,95987.38
2022-12-09T00:20:20.386Z,96001.56
2022-12-09T00:24:20.477Z,95999.50
2022-12-09T00:28:20.807Z,95996.66
2022-12-09T00:32:21.243Z,95984.38
2022-12-09T00:36:26.226Z,95974.09
2022-12-09T00:40:26.566Z,95992.75
2022-12-09T00:44:26.711Z,95992.81
2022-12-09T00:48:27.313Z,95988.91
2022-12-09T00:52:30.049Z,95992.53
2022-12-09T00:56:33.257Z,95975.88
2022-12-09T01:00:34.076Z,95993.91
2022-12-09T01:04:34.449Z,95990.56
2022-12-09T01:08:39.322Z,95966.66
2022-12-09T01:12:39.802Z,95986.06
2022-12-09T01:16:42.451Z,95994.91
2022-12-09T01:20:43.425Z,95979.97
2022-12-09T01:24:47.979Z,95992.75
2022-12-09T01:28:52.522Z,95962.00
2022-12-09T01:32:53.311Z,95988.03
2022-12-09T01:36:53.955Z,95990.91
2022-12-09T01:40:56.698Z,95982.28
2022-12-09T01:45:40.748Z,95974.09
2022-12-09T01:49:48.284Z,95957.84
2022-12-09T01:53:53.939Z,95972.16
2022-12-09T01:57:57.122Z,95965.41
2022-12-09T02:02:03.408Z,95953.50
2022-12-09T02:06:03.780Z,95953.16
2022-12-09T02:10:08.946Z,95955.13
2022-12-09T02:14:23.780Z,95942.66
2022-12-09T02:18:39.138Z,95937.50
2022-12-09T02:22:46.092Z,95937.28
2022-12-09T02:26:56.337Z,95920.59
2022-12-09T02:31:20.481Z,95942.88
2022-12-09T02:35:30.459Z,95934.97
2022-12-09T02:39:39.377Z,95920.25
2022-12-09T02:43:50.353Z,95937.41
2022-12-09T02:47:58.228Z,95931.25
2022-12-09T02:52:02.484Z,95923.50
2022-12-09T02:56:06.818Z,95924.19
2022-12-09T03:00:11.296Z,95916.44
2022-12-09T03:04:19.899Z,95918.00
2022-12-09T03:08:38.973Z,95913.19
2022-12-09T03:12:43.900Z,95880.72
2022-12-09T03:16:52.607Z,95913.88
2022-12-09T03:20:54.261Z,95919.00
2022-12-09T03:25:04.289Z,95920.75
2022-12-09T03:29:10.054Z,95913.38
2022-12-09T03:33:12.427Z,95911.22
2022-12-09T03:37:18.339Z,95899.00
2022-12-09T03:41:30.996Z,95901.28
2022-12-09T03:45:31.858Z,95902.69
2022-12-09T03:49:32.578Z,95901.41
2022-12-09T03:53:41.450Z,95896.75
2022-12-09T03:57:48.573Z,95892.50
2022-12-09T04:01:50.206Z,95897.41
2022-12-09T04:05:50.484Z,95896.84
2022-12-09T04:09:50.850Z,95894.91
2022-12-09T04:13:53.558Z,95882.09
2022-12-09T04:17:54.053Z,95878.78
2022-12-09T04:21:54.374Z,95889.28
2022-12-09T04:25:54.819Z,95888.47
2022-12-09T04:29:57.952Z,95864.22
2022-12-09T04:33:59.835Z,95869.00
2022-12-09T04:38:02.776Z,95884.34
2022-12-09T04:42:03.257Z,95888.47
2022-12-09T04:46:09.005Z,95879.91
2022-12-09T04:50:11.364Z,95884.81
2022-12-09T04:54:16.739Z,95872.31
2022-12-09T04:58:16.881Z,95847.16
2022-12-09T05:02:19.854Z,95861.88
2022-12-09T05:06:22.083Z,95858.78
2022-12-09T05:10:22.838Z,95837.41
2022-12-09T05:14:23.198Z,95856.09
2022-12-09T05:18:26.022Z,95839.63
2022-12-09T05:22:27.169Z,95820.38
2022-12-09T05:26:27.759Z,95818.41
2022-12-09T05:30:28.300Z,95833.84
2022-12-09T05:34:32.035Z,95831.63
2022-12-09T05:38:33.537Z,95791.84
2022-12-09T05:42:40.966Z,95832.38
2022-12-09T05:46:41.953Z,95830.16
2022-12-09T05:50:45.024Z,95824.38
2022-12-09T05:54:45.426Z,95819.72
2022-12-09T05:58:46.221Z,95816.28
2022-12-09T06:02:46.984Z,95821.31
2022-12-09T06:06:50.040Z,95814.69
2022-12-09T06:10:50.399Z,95811.91
2022-12-09T06:14:51.006Z,95801.94
2022-12-09T06:18:52.592Z,95792.91
2022-12-09T06:22:55.827Z,95788.09
2022-12-09T06:26:56.856Z,95792.56
2022-12-09T06:31:00.019Z,95794.19
2022-12-09T06:35:01.311Z,95782.44
2022-12-09T06:39:10.564Z,95769.72
2022-12-09T06:43:11.302Z,95762.03
2022-12-09T06:47:11.883Z,95781.31
2022-12-09T06:51:12.810Z,95774.91
2022-12-09T06:55:16.855Z,95778.69
2022-12-09T06:59:17.505Z,95785.72
2022-12-09T07:03:18.051Z,95779.41
2022-12-09T07:07:19.120Z,95750.38
2022-12-09T07:11:22.720Z,95714.91
2022-12-09T07:15:23.524Z,95760.72
2022-12-09T07:19:26.312Z,95760.41
2022-12-09T07:23:27.191Z,95787.41
2022-12-09T07:27:29.933Z,95793.72
2022-12-09T07:31:32.018Z,95792.25
2022-12-09T07:35:33.045Z,95793.09
2022-12-09T07:39:33.631Z,95789.66
2022-12-09T07:43:36.760Z,95785.56
2022-12-09T07:47:37.475Z,95776.09
2022-12-09T07:51:38.223Z,95758.59
2022-12-09T07:55:38.647Z,95784.28
2022-12-09T07:59:41.592Z,95774.25
2022-12-09T08:03:43.477Z,95707.38
2022-12-09T08:07:44.710Z,95760.91
2022-12-09T08:11:46.205Z,95767.84
2022-12-09T08:15:49.421Z,95773.88
2022-12-09T08:19:50.159Z,95751.09
2022-12-09T08:23:51.526Z,95749.34
2022-12-09T08:27:52.070Z,95759.31
2022-12-09T08:31:55.390Z,95752.47
2022-12-09T08:35:56.424Z,95746.56
2022-12-09T08:39:56.619Z,95726.88
2022-12-09T08:43:57.022Z,95719.91
2022-12-09T08:48:00.320Z,95690.38
2022-12-09T08:52:01.174Z,95741.81
2022-12-09T08:56:02.034Z,95738.59
2022-12-09T09:00:02.224Z,95718.06
2022-12-09T09:04:10.667Z,95723.22
2022-12-09T09:08:11.155Z,95714.19
2022-12-09T09:12:11.502Z,95712.41
2022-12-09T09:16:14.942Z,95714.81
2022-12-09T09:20:18.425Z,95705.72
2022-12-09T09:24:22.937Z,95685.19
2022-12-09T09:28:28.978Z,95701.50
2022-12-09T09:32:32.885Z,95692.28
2022-12-09T09:36:36.856Z,95697.13
2022-12-09T09:40:37.427Z,95691.63
2022-12-09T09:44:43.255Z,95680.50
2022-12-09T09:48:43.937Z,95672.56
2022-12-09T09:52:46.779Z,95672.28
2022-12-09T09:56:56.704Z,95658.22
2022-12-09T10:01:06.622Z,95662.72
2022-12-09T10:05:23.123Z,95644.94
2022-12-09T10:09:39.790Z,95658.56
2022-12-09T10:13:56.282Z,95659.75
2022-12-09T10:18:14.524Z,95638.19
2022-12-09T10:22:19.538Z,95652.69
2022-12-09T10:26:30.299Z,95637.31
2022-12-09T10:30:37.271Z,95622.78
2022-12-09T10:34:42.609Z,95641.94
2022-12-09T10:38:46.034Z,95635.50
2022-12-09T10:43:05.584Z,95580.91
2022-12-09T10:47:08.254Z,95611.56
2022-12-09T10:51:17.605Z,95605.72
2022-12-09T10:55:32.876Z,95634.25
2022-12-09T10:59:38.136Z,95633.44
2022-12-09T11:03:43.330Z,95619.41
2022-12-09T11:07:51.315Z,95607.00
2022-12-09T11:11:53.580Z,95607.28
2022-12-09T11:16:01.621Z,95617.34
2022-12-09T11:20:23.296Z,95613.66
2022-12-09T11:24:25.456Z,95569.69
2022-12-09T11:28:31.988Z,95599.09
2022-12-09T11:32:35.638Z,95585.56
2022-12-09T11:36:43.988Z,95555.34
2022-12-09T11:40:44.644Z,95580.00
2022-12-09T11:44:53.521Z,95565.94
2022-12-09T11:49:03.448Z,95541.56
2022-12-09T11:53:26.786Z,95546.34
2022-12-09T11:57:37.421Z,95550.56
2022-12-09T12:01:51.245Z,95538.38
2022-12-09T12:05:58.788Z,95546.63
2022-12-09T12:10:01.396Z,95549.78
2022-12-09T12:14:09.384Z,95548.97
2022-12-09T12:18:25.731Z,95523.53
2022-12-09T12:23:08.402Z,95525.16
2022-12-09T12:27:28.028Z,95453.63
2022-12-09T12:32:07.263Z,95550.06
2022-12-09T12:36:19.557Z,95539.44
2022-12-09T12:40:39.422Z,95540.50
2022-12-09T12:45:05.243Z,95535.22
2022-12-09T12:49:42.253Z,95511.38
2022-12-09T12:53:54.037Z,95485.03
2022-12-09T12:58:09.646Z,95464.66
2022-12-09T13:02:31.424Z,95469.97
2022-12-09T13:06:43.910Z,95488.13
2022-12-09T13:10:48.568Z,95486.81
2022-12-09T13:14:56.855Z,95412.75
2022-12-09T13:19:04.252Z,95453.56
2022-12-09T13:23:14.915Z,95483.56
2022-12-09T13:27:26.261Z,95465.00
2022-12-09T13:31:33.602Z,95497.03
2022-12-09T13:35:45.990Z,95485.38
2022-12-09T13:40:01.243Z,95483.28
2022-12-09T13:44:14.525Z,95489.09
2022-12-09T13:48:47.332Z,95492.78
2022-12-09T13:52:53.698Z,95499.69
2022-12-09T13:57:21.099Z,95497.00
2022-12-09T14:01:31.972Z,95500.72
2022-12-09T14:05:39.569Z,95478.88
2022-12-09T14:09:51.029Z,95497.47
2022-12-09T14:13:51.908Z,95494.81
2022-12-09T14:18:07.027Z,95501.19
2022-12-09T14:22:41.932Z,95511.44
2022-12-09T14:26:48.850Z,95517.53
2022-12-09T14:30:54.991Z,95508.97
2022-12-09T14:35:32.896Z,95521.97
2022-12-09T14:39:47.722Z,95511.72
2022-12-09T14:44:06.150Z,95502.94
2022-12-09T14:48:14.055Z,95519.63
2022-12-09T14:52:23.322Z,95524.34
2022-12-09T14:56:29.118Z,95519.59
2022-12-09T15:00:34.902Z,95513.75
2022-12-09T15:04:39.407Z,95500.97
2022-12-09T15:08:43.016Z,95508.38
2022-12-09T15:12:50.060Z,95513.66
2022-12-09T15:16:51.128Z,95516.34
2022-12-09T15:20:55.675Z,95512.03
2022-12-09T15:24:56.871Z,95506.63
2022-12-09T15:29:05.257Z,95510.88
2022-12-09T15:33:06.562Z,95528.84
2022-12-09T15:37:09.371Z,95530.16
2022-12-09T15:41:37.358Z,95529.38
2022-12-09T15:45:46.006Z,95525.97
2022-12-09T15:49:54.607Z,95526.94
2022-12-09T15:54:01.271Z,95463.59
2022-12-09T15:58:06.047Z,95458.28
2022-12-09T16:02:12.761Z,95518.69
2022-12-09T16:06:13.678Z,95519.78
2022-12-09T16:10:18.099Z,95512.84
2022-12-09T16:14:20.510Z,95514.44
2022-12-09T16:18:27.747Z,95516.78
2022-12-09T16:22:32.983Z,95505.41
2022-12-09T16:26:37.906Z,95491.53
2022-12-09T16:30:49.996Z,95525.41
2022-12-09T16:34:55.490Z,95479.81
2022-12-09T16:39:48.230Z,95526.78
2022-12-09T16:44:21.465Z,95497.53
2022-12-09T16:48:23.992Z,95521.44
2022-12-09T16:52:27.592Z,95533.56
2022-12-09T16:56:34.738Z,95513.94
2022-12-09T17:00:35.010Z,95536.16
2022-12-09T17:04:35.119Z,95514.44
2022-12-09T17:08:37.352Z,95534.06
2022-12-09T17:12:40.054Z,95508.03
2022-12-09T17:16:40.915Z,95537.44
2022-12-09T17:20:41.605Z,95543.03
2022-12-09T17:24:42.502Z,95537.75
2022-12-09T17:28:46.735Z,95544.38
2022-12-09T17:32:46.962Z,95552.59
2022-12-09T17:36:48.012Z,95554.13
2022-12-09T17:40:48.396Z,95555.22
2022-12-09T17:44:51.073Z,95546.81
2022-12-09T17:48:51.308Z,95558.47
2022-12-09T17:52:51.396Z,95570.97
2022-12-09T17:56:51.530Z,95576.28
2022-12-09T18:00:54.286Z,95535.47
2022-12-09T18:04:54.645Z,95563.06
2022-12-09T18:08:55.115Z,95576.88
2022-12-09T18:12:55.203Z,95575.78
2022-12-09T18:16:58.077Z,95578.69
2022-12-09T18:21:03.015Z,95592.69
2022-12-09T18:25:03.105Z,95605.16
2022-12-09T18:29:03.424Z,95602.28
2022-12-09T18:33:06.380Z,95600.69
2022-12-09T18:37:06.706Z,95597.16
2022-12-09T18:41:07.280Z,95590.47
2022-12-09T18:45:08.748Z,95610.84
2022-12-09T18:49:15.723Z,95608.28
2022-12-09T18:53:15.804Z,95604.88
2022-12-09T18:57:15.948Z,95609.75
2022-12-09T19:01:23.996Z,95602.16
2022-12-09T19:05:26.724Z,95600.25
2022-12-09T19:09:31.843Z,95610.22
2022-12-09T19:13:33.139Z,95599.28
2022-12-09T19:17:33.441Z,95612.16
2022-12-09T19:21:36.075Z,95610.97
2022-12-09T19:25:36.179Z,95603.19
2022-12-09T19:29:36.258Z,95617.06
2022-12-09T19:33:36.377Z,95610.66
2022-12-09T19:37:39.072Z,95622.34
2022-12-09T19:41:40.469Z,95606.50
2022-12-09T19:45:40.668Z,95646.84
2022-12-09T19:49:42.154Z,95612.75
2022-12-09T19:53:46.509Z,95600.00
2022-12-09T19:57:46.574Z,95645.75
2022-12-09T20:01:48.514Z,95646.38
2022-12-09T20:05:54.139Z,95650.56
2022-12-09T20:09:56.889Z,95647.97
2022-12-09T20:13:59.537Z,95610.97
2022-12-09T20:17:59.662Z,95656.44
2022-12-09T20:21:59.823Z,95665.97
2022-12-09T20:26:10.402Z,95667.97
2022-12-09T20:30:12.893Z,95631.41
2022-12-09T20:34:18.088Z,95673.34
2022-12-09T20:38:18.223Z,95670.31
2022-12-09T20:42:20.887Z,95655.31
2022-12-09T20:46:24.728Z,95663.88
2022-12-09T20:50:25.044Z,95663.88
2022-12-09T20:54:25.992Z,95664.16
2022-12-09T20:58:29.158Z,95663.78
2022-12-09T21:02:29.467Z,95662.19
2022-12-09T21:06:33.142Z,95652.16
2022-12-09T21:10:33.447Z,95660.09
2022-12-09T21:14:37.085Z,95598.53
2022-12-09T21:18:39.541Z,95658.00
2022-12-09T21:22:40.026Z,95664.25
2022-12-09T21:26:41.165Z,95657.88
2022-12-09T21:30:44.121Z,95650.09
2022-12-09T21:34:44.672Z,95658.56
2022-12-09T21:38:45.939Z,95668.53
2022-12-09T21:42:46.359Z,95670.94
2022-12-09T21:46:49.270Z,95640.22
2022-12-09T21:50:57.470Z,95664.38
2022-12-09T21:54:58.204Z,95674.66
2022-12-09T21:59:00.827Z,95673.53
2022-12-09T22:03:03.779Z,95671.81
2022-12-09T22:07:03.854Z,95678.84
2022-12-09T22:11:04.090Z,95683.66
2022-12-09T22:15:04.586Z,95689.56
2022-12-09T22:19:10.943Z,95696.59
2022-12-09T22:23:11.437Z,95696.13
2022-12-09T22:27:11.811Z,95695.19
2022-12-09T22:31:13.668Z,95650.78
2022-12-09T22:35:16.916Z,95713.53
2022-12-09T22:39:19.228Z,95709.72
2022-12-09T22:43:19.355Z,95727.66
2022-12-09T22:47:19.601Z,95696.25
2022-12-09T22:51:26.305Z,95727.16
2022-12-09T22:55:26.457Z,95720.91
2022-12-09T22:59:26.651Z,95709.84
2022-12-09T23:03:27.429Z,95608.56
2022-12-09T23:07:30.637Z,95716.88
2022-12-09T23:11:31.714Z,95704.97
2022-12-09T23:15:31.923Z,95706.88
2022-12-09T23:19:32.000Z,95706.25
2022-12-09T23:23:35.559Z,95706.06
2022-12-09T23:27:35.629Z,95702.38
2022-12-09T23:31:39.278Z,95703.97
2022-12-09T23:35:41.173Z,95673.59
2022-12-09T23:39:44.206Z,95692.31
2022-12-09T23:43:45.073Z,95690.78
2022-12-09T23:47:46.152Z,95689.22
2022-12-09T23:51:46.692Z,95694.09
2022-12-09T23:55:49.337Z,95695.63
2022-12-09T23:59:49.923Z,95695.50
